sensor_id;sensor_type;location;lat;lon;timestamp;temperature;humidity
23697;DHT22;48864;50.820;4.400;2022-10-16T00:00:16;14.80;99.90
23697;DHT22;48864;50.820;4.400;2022-10-16T00:02:41;14.80;99.90
23697;DHT22;48864;50.820;4.400;2022-10-16T00:05:07;14.80;99.90
23697;DHT22;48864;50.820;4.400;2022-10-16T00:07:33;14.70;99.90
23697;DHT22;48864;50.820;4.400;2022-10-16T00:09:58;14.60;99.90
23697;DHT22;48864;50.820;4.400;2022-10-16T00:12:24;14.60;99.90
23697;DHT22;48864;50.820;4.400;2022-10-16T00:14:49;14.70;99.90
23697;DHT22;48864;50.820;4.400;2022-10-16T00:17:15;14.80;99.90
23697;DHT22;48864;50.820;4.400;2022-10-16T00:19:40;14.80;99.90
23697;DHT22;48864;50.820;4.400;2022-10-16T00:22:06;14.80;99.90
23697;DHT22;48864;50.820;4.400;2022-10-16T00:24:31;14.60;99.90
23697;DHT22;48864;50.820;4.400;2022-10-16T00:26:57;14.70;99.90
23697;DHT22;48864;50.820;4.400;2022-10-16T00:29:22;14.70;99.90
23697;DHT22;48864;50.820;4.400;2022-10-16T00:31:48;14.70;99.90
23697;DHT22;48864;50.820;4.400;2022-10-16T00:34:13;14.60;99.90
23697;DHT22;48864;50.820;4.400;2022-10-16T00:36:39;14.70;99.90
23697;DHT22;48864;50.820;4.400;2022-10-16T00:39:05;14.60;99.90
23697;DHT22;48864;50.820;4.400;2022-10-16T00:41:31;14.70;99.90
23697;DHT22;48864;50.820;4.400;2022-10-16T00:43:58;14.50;99.90
23697;DHT22;48864;50.820;4.400;2022-10-16T00:49:16;14.50;99.90
23697;DHT22;48864;50.820;4.400;2022-10-16T00:51:47;14.50;99.90
23697;DHT22;48864;50.820;4.400;2022-10-16T00:54:17;14.50;99.90
23697;DHT22;48864;50.820;4.400;2022-10-16T00:56:46;14.30;99.90
23697;DHT22;48864;50.820;4.400;2022-10-16T00:59:18;14.30;99.90
23697;DHT22;48864;50.820;4.400;2022-10-16T01:01:45;14.40;99.90
23697;DHT22;48864;50.820;4.400;2022-10-16T01:04:10;14.30;99.90
23697;DHT22;48864;50.820;4.400;2022-10-16T01:09:14;14.40;99.90
23697;DHT22;48864;50.820;4.400;2022-10-16T01:11:53;14.30;99.90
23697;DHT22;48864;50.820;4.400;2022-10-16T01:14:24;14.30;99.90
23697;DHT22;48864;50.820;4.400;2022-10-16T01:16:58;14.40;99.90
23697;DHT22;48864;50.820;4.400;2022-10-16T01:22:09;14.40;99.90
23697;DHT22;48864;50.820;4.400;2022-10-16T01:24:45;14.40;99.90
23697;DHT22;48864;50.820;4.400;2022-10-16T01:30:02;14.40;99.90
23697;DHT22;48864;50.820;4.400;2022-10-16T01:32:43;14.40;99.90
23697;DHT22;48864;50.820;4.400;2022-10-16T01:37:48;14.30;99.90
23697;DHT22;48864;50.820;4.400;2022-10-16T01:40:17;14.30;99.90
23697;DHT22;48864;50.820;4.400;2022-10-16T01:42:51;14.30;99.90
23697;DHT22;48864;50.820;4.400;2022-10-16T01:45:19;14.30;99.90
23697;DHT22;48864;50.820;4.400;2022-10-16T01:47:46;14.30;99.90
23697;DHT22;48864;50.820;4.400;2022-10-16T01:50:14;14.30;99.90
23697;DHT22;48864;50.820;4.400;2022-10-16T01:52:44;14.20;99.90
23697;DHT22;48864;50.820;4.400;2022-10-16T01:55:14;14.20;99.90
23697;DHT22;48864;50.820;4.400;2022-10-16T01:57:45;14.30;99.90
23697;DHT22;48864;50.820;4.400;2022-10-16T02:00:14;14.30;99.90
23697;DHT22;48864;50.820;4.400;2022-10-16T02:02:44;14.30;99.90
23697;DHT22;48864;50.820;4.400;2022-10-16T02:07:48;14.20;99.90
23697;DHT22;48864;50.820;4.400;2022-10-16T02:10:14;14.10;99.90
23697;DHT22;48864;50.820;4.400;2022-10-16T02:12:44;14.20;99.90
23697;DHT22;48864;50.820;4.400;2022-10-16T02:15:11;14.30;99.90
23697;DHT22;48864;50.820;4.400;2022-10-16T02:17:36;14.30;99.90
23697;DHT22;48864;50.820;4.400;2022-10-16T02:20:03;14.30;99.90
23697;DHT22;48864;50.820;4.400;2022-10-16T02:22:39;14.40;99.90
23697;DHT22;48864;50.820;4.400;2022-10-16T02:25:12;14.30;99.90
23697;DHT22;48864;50.820;4.400;2022-10-16T02:27:52;14.30;99.90
23697;DHT22;48864;50.820;4.400;2022-10-16T02:30:25;14.20;99.90
23697;DHT22;48864;50.820;4.400;2022-10-16T02:32:53;14.20;99.90
23697;DHT22;48864;50.820;4.400;2022-10-16T02:35:21;14.20;99.90
23697;DHT22;48864;50.820;4.400;2022-10-16T02:37:49;14.20;99.90
23697;DHT22;48864;50.820;4.400;2022-10-16T02:40:15;14.20;99.90
23697;DHT22;48864;50.820;4.400;2022-10-16T02:42:42;14.30;99.90
23697;DHT22;48864;50.820;4.400;2022-10-16T02:45:09;14.30;99.90
23697;DHT22;48864;50.820;4.400;2022-10-16T02:47:36;14.40;99.90
23697;DHT22;48864;50.820;4.400;2022-10-16T02:50:01;14.40;99.90
23697;DHT22;48864;50.820;4.400;2022-10-16T02:52:27;14.30;99.90
23697;DHT22;48864;50.820;4.400;2022-10-16T02:54:53;14.40;99.90
23697;DHT22;48864;50.820;4.400;2022-10-16T02:57:18;14.30;99.90
23697;DHT22;48864;50.820;4.400;2022-10-16T02:59:44;14.20;99.90
23697;DHT22;48864;50.820;4.400;2022-10-16T03:02:10;14.20;99.90
23697;DHT22;48864;50.820;4.400;2022-10-16T03:04:36;14.30;99.90
23697;DHT22;48864;50.820;4.400;2022-10-16T03:07:27;14.30;99.90
23697;DHT22;48864;50.820;4.400;2022-10-16T03:09:53;14.20;99.90
23697;DHT22;48864;50.820;4.400;2022-10-16T03:12:19;14.10;99.90
23697;DHT22;48864;50.820;4.400;2022-10-16T03:14:45;14.20;99.90
23697;DHT22;48864;50.820;4.400;2022-10-16T03:17:11;14.30;99.90
23697;DHT22;48864;50.820;4.400;2022-10-16T03:19:38;14.30;99.90
23697;DHT22;48864;50.820;4.400;2022-10-16T03:22:03;14.20;99.90
23697;DHT22;48864;50.820;4.400;2022-10-16T03:24:29;14.20;99.90
23697;DHT22;48864;50.820;4.400;2022-10-16T03:26:54;14.30;99.90
23697;DHT22;48864;50.820;4.400;2022-10-16T03:29:20;14.30;99.90
23697;DHT22;48864;50.820;4.400;2022-10-16T03:31:45;14.20;99.90
23697;DHT22;48864;50.820;4.400;2022-10-16T03:34:11;14.20;99.90
23697;DHT22;48864;50.820;4.400;2022-10-16T03:36:36;14.30;99.90
23697;DHT22;48864;50.820;4.400;2022-10-16T03:39:02;14.30;99.90
23697;DHT22;48864;50.820;4.400;2022-10-16T03:41:28;14.20;99.90
23697;DHT22;48864;50.820;4.400;2022-10-16T03:43:54;14.10;99.90
23697;DHT22;48864;50.820;4.400;2022-10-16T03:46:19;14.10;99.90
23697;DHT22;48864;50.820;4.400;2022-10-16T03:48:45;14.10;99.90
23697;DHT22;48864;50.820;4.400;2022-10-16T03:51:10;14.10;99.90
23697;DHT22;48864;50.820;4.400;2022-10-16T03:53:36;14.10;99.90
23697;DHT22;48864;50.820;4.400;2022-10-16T03:56:01;14.00;99.90
23697;DHT22;48864;50.820;4.400;2022-10-16T03:58:27;13.90;99.90
23697;DHT22;48864;50.820;4.400;2022-10-16T04:00:53;13.90;99.90
23697;DHT22;48864;50.820;4.400;2022-10-16T04:03:18;13.90;99.90
23697;DHT22;48864;50.820;4.400;2022-10-16T04:05:44;13.90;99.90
23697;DHT22;48864;50.820;4.400;2022-10-16T04:08:10;13.80;99.90
23697;DHT22;48864;50.820;4.400;2022-10-16T04:10:35;13.90;99.90
23697;DHT22;48864;50.820;4.400;2022-10-16T04:13:01;13.90;99.90
23697;DHT22;48864;50.820;4.400;2022-10-16T04:15:27;14.00;99.90
23697;DHT22;48864;50.820;4.400;2022-10-16T04:17:52;14.00;99.90
23697;DHT22;48864;50.820;4.400;2022-10-16T04:20:18;14.10;99.90
23697;DHT22;48864;50.820;4.400;2022-10-16T04:22:44;13.90;99.90
23697;DHT22;48864;50.820;4.400;2022-10-16T04:25:10;14.00;99.90
23697;DHT22;48864;50.820;4.400;2022-10-16T04:27:37;13.90;99.90
23697;DHT22;48864;50.820;4.400;2022-10-16T04:30:04;13.90;99.90
23697;DHT22;48864;50.820;4.400;2022-10-16T04:32:29;14.00;99.90
23697;DHT22;48864;50.820;4.400;2022-10-16T04:34:55;14.10;99.90
23697;DHT22;48864;50.820;4.400;2022-10-16T04:37:25;14.20;99.90
23697;DHT22;48864;50.820;4.400;2022-10-16T04:39:51;13.90;99.90
23697;DHT22;48864;50.820;4.400;2022-10-16T04:42:16;14.00;99.90
23697;DHT22;48864;50.820;4.400;2022-10-16T04:44:42;14.00;99.90
23697;DHT22;48864;50.820;4.400;2022-10-16T04:47:08;14.10;99.90
23697;DHT22;48864;50.820;4.400;2022-10-16T04:49:33;14.20;99.90
23697;DHT22;48864;50.820;4.400;2022-10-16T04:51:59;14.10;99.90
23697;DHT22;48864;50.820;4.400;2022-10-16T04:54:24;14.10;99.90
23697;DHT22;48864;50.820;4.400;2022-10-16T04:56:50;14.20;99.90
23697;DHT22;48864;50.820;4.400;2022-10-16T04:59:18;14.10;99.90
23697;DHT22;48864;50.820;4.400;2022-10-16T05:01:44;14.10;99.90
23697;DHT22;48864;50.820;4.400;2022-10-16T05:04:10;14.00;99.90
23697;DHT22;48864;50.820;4.400;2022-10-16T05:06:36;14.00;99.90
23697;DHT22;48864;50.820;4.400;2022-10-16T05:09:02;14.00;99.90
23697;DHT22;48864;50.820;4.400;2022-10-16T05:11:28;14.00;99.90
23697;DHT22;48864;50.820;4.400;2022-10-16T05:13:54;13.80;99.90
23697;DHT22;48864;50.820;4.400;2022-10-16T05:16:19;13.80;99.90
23697;DHT22;48864;50.820;4.400;2022-10-16T05:18:45;14.00;99.90
23697;DHT22;48864;50.820;4.400;2022-10-16T05:21:10;14.00;99.90
23697;DHT22;48864;50.820;4.400;2022-10-16T05:23:36;14.10;99.90
23697;DHT22;48864;50.820;4.400;2022-10-16T05:26:02;14.20;99.90
23697;DHT22;48864;50.820;4.400;2022-10-16T05:28:30;14.20;99.90
23697;DHT22;48864;50.820;4.400;2022-10-16T05:30:57;14.10;99.90
23697;DHT22;48864;50.820;4.400;2022-10-16T05:33:24;14.10;99.90
23697;DHT22;48864;50.820;4.400;2022-10-16T05:35:51;14.10;99.90
23697;DHT22;48864;50.820;4.400;2022-10-16T05:38:17;14.00;99.90
23697;DHT22;48864;50.820;4.400;2022-10-16T05:40:43;14.00;99.90
23697;DHT22;48864;50.820;4.400;2022-10-16T05:43:09;14.00;99.90
23697;DHT22;48864;50.820;4.400;2022-10-16T05:45:34;14.00;99.90
23697;DHT22;48864;50.820;4.400;2022-10-16T05:48:00;14.00;99.90
23697;DHT22;48864;50.820;4.400;2022-10-16T05:50:26;14.00;99.90
23697;DHT22;48864;50.820;4.400;2022-10-16T05:52:52;14.00;99.90
23697;DHT22;48864;50.820;4.400;2022-10-16T05:55:18;14.00;99.90
23697;DHT22;48864;50.820;4.400;2022-10-16T05:57:44;14.10;99.90
23697;DHT22;48864;50.820;4.400;2022-10-16T06:00:10;14.10;99.90
23697;DHT22;48864;50.820;4.400;2022-10-16T06:02:36;14.10;99.90
23697;DHT22;48864;50.820;4.400;2022-10-16T06:05:02;14.10;99.90
23697;DHT22;48864;50.820;4.400;2022-10-16T06:07:28;14.10;99.90
23697;DHT22;48864;50.820;4.400;2022-10-16T06:09:53;14.00;99.90
23697;DHT22;48864;50.820;4.400;2022-10-16T06:12:20;14.10;99.90
23697;DHT22;48864;50.820;4.400;2022-10-16T06:14:49;14.00;99.90
23697;DHT22;48864;50.820;4.400;2022-10-16T06:17:22;13.90;99.90
23697;DHT22;48864;50.820;4.400;2022-10-16T06:19:47;13.90;99.90
23697;DHT22;48864;50.820;4.400;2022-10-16T06:22:13;13.90;99.90
23697;DHT22;48864;50.820;4.400;2022-10-16T06:24:38;13.90;99.90
23697;DHT22;48864;50.820;4.400;2022-10-16T06:27:04;13.90;99.90
23697;DHT22;48864;50.820;4.400;2022-10-16T06:29:30;14.00;99.90
23697;DHT22;48864;50.820;4.400;2022-10-16T06:31:55;13.90;99.90
23697;DHT22;48864;50.820;4.400;2022-10-16T06:34:21;14.00;99.90
23697;DHT22;48864;50.820;4.400;2022-10-16T06:36:49;14.10;99.90
23697;DHT22;48864;50.820;4.400;2022-10-16T06:39:14;14.10;99.90
23697;DHT22;48864;50.820;4.400;2022-10-16T06:41:40;14.20;99.90
23697;DHT22;48864;50.820;4.400;2022-10-16T06:44:06;14.20;99.90
23697;DHT22;48864;50.820;4.400;2022-10-16T06:46:32;14.20;99.90
23697;DHT22;48864;50.820;4.400;2022-10-16T06:48:58;14.20;99.90
23697;DHT22;48864;50.820;4.400;2022-10-16T06:51:24;14.20;99.90
23697;DHT22;48864;50.820;4.400;2022-10-16T06:53:52;14.10;99.90
23697;DHT22;48864;50.820;4.400;2022-10-16T06:56:24;14.00;99.90
23697;DHT22;48864;50.820;4.400;2022-10-16T06:58:50;14.10;99.90
23697;DHT22;48864;50.820;4.400;2022-10-16T07:01:18;14.10;99.90
23697;DHT22;48864;50.820;4.400;2022-10-16T07:03:45;14.10;99.90
23697;DHT22;48864;50.820;4.400;2022-10-16T07:06:12;14.00;99.90
23697;DHT22;48864;50.820;4.400;2022-10-16T07:08:40;14.00;99.90
23697;DHT22;48864;50.820;4.400;2022-10-16T07:11:08;14.00;99.90
23697;DHT22;48864;50.820;4.400;2022-10-16T07:13:35;14.10;99.90
23697;DHT22;48864;50.820;4.400;2022-10-16T07:16:06;14.10;99.90
23697;DHT22;48864;50.820;4.400;2022-10-16T07:18:32;14.30;99.90
23697;DHT22;48864;50.820;4.400;2022-10-16T07:21:15;14.30;99.90
23697;DHT22;48864;50.820;4.400;2022-10-16T07:23:42;14.30;99.90
23697;DHT22;48864;50.820;4.400;2022-10-16T07:26:08;14.30;99.90
23697;DHT22;48864;50.820;4.400;2022-10-16T07:28:35;14.20;99.90
23697;DHT22;48864;50.820;4.400;2022-10-16T07:31:02;14.20;99.90
23697;DHT22;48864;50.820;4.400;2022-10-16T07:33:28;14.20;99.90
23697;DHT22;48864;50.820;4.400;2022-10-16T07:35:54;14.30;99.90
23697;DHT22;48864;50.820;4.400;2022-10-16T07:38:24;14.30;99.90
23697;DHT22;48864;50.820;4.400;2022-10-16T07:40:57;14.30;99.90
23697;DHT22;48864;50.820;4.400;2022-10-16T07:43:23;14.50;99.90
23697;DHT22;48864;50.820;4.400;2022-10-16T07:45:57;14.50;99.90
23697;DHT22;48864;50.820;4.400;2022-10-16T07:48:34;14.50;99.90
23697;DHT22;48864;50.820;4.400;2022-10-16T07:51:04;14.60;99.90
23697;DHT22;48864;50.820;4.400;2022-10-16T07:53:31;14.70;99.90
23697;DHT22;48864;50.820;4.400;2022-10-16T07:56:01;14.70;99.90
23697;DHT22;48864;50.820;4.400;2022-10-16T07:58:28;14.60;99.90
23697;DHT22;48864;50.820;4.400;2022-10-16T08:00:54;14.70;99.90
23697;DHT22;48864;50.820;4.400;2022-10-16T08:03:20;14.80;99.90
23697;DHT22;48864;50.820;4.400;2022-10-16T08:05:46;14.90;99.90
23697;DHT22;48864;50.820;4.400;2022-10-16T08:08:16;14.80;99.90
23697;DHT22;48864;50.820;4.400;2022-10-16T08:10:42;14.80;99.90
23697;DHT22;48864;50.820;4.400;2022-10-16T08:13:07;14.80;99.90
23697;DHT22;48864;50.820;4.400;2022-10-16T08:15:33;14.90;99.90
23697;DHT22;48864;50.820;4.400;2022-10-16T08:18:00;14.90;99.90
23697;DHT22;48864;50.820;4.400;2022-10-16T08:20:27;15.00;99.90
23697;DHT22;48864;50.820;4.400;2022-10-16T08:22:53;15.00;99.90
23697;DHT22;48864;50.820;4.400;2022-10-16T08:25:20;15.00;99.90
23697;DHT22;48864;50.820;4.400;2022-10-16T08:27:46;15.00;99.90
23697;DHT22;48864;50.820;4.400;2022-10-16T08:30:12;15.00;99.90
23697;DHT22;48864;50.820;4.400;2022-10-16T08:32:37;15.10;99.90
23697;DHT22;48864;50.820;4.400;2022-10-16T08:35:03;15.20;99.90
23697;DHT22;48864;50.820;4.400;2022-10-16T08:37:32;15.10;99.90
23697;DHT22;48864;50.820;4.400;2022-10-16T08:39:58;15.20;99.90
23697;DHT22;48864;50.820;4.400;2022-10-16T08:45:35;15.20;99.90
23697;DHT22;48864;50.820;4.400;2022-10-16T08:50:52;15.30;99.90
23697;DHT22;48864;50.820;4.400;2022-10-16T08:53:43;15.30;99.90
23697;DHT22;48864;50.820;4.400;2022-10-16T08:56:10;15.40;99.90
23697;DHT22;48864;50.820;4.400;2022-10-16T08:58:35;15.40;99.90
23697;DHT22;48864;50.820;4.400;2022-10-16T09:01:03;15.40;99.90
23697;DHT22;48864;50.820;4.400;2022-10-16T09:06:16;15.50;99.90
23697;DHT22;48864;50.820;4.400;2022-10-16T09:25:31;15.90;99.90
23697;DHT22;48864;50.820;4.400;2022-10-16T09:27:57;15.80;99.90
23697;DHT22;48864;50.820;4.400;2022-10-16T09:30:27;15.90;99.90
23697;DHT22;48864;50.820;4.400;2022-10-16T09:32:53;15.90;99.90
23697;DHT22;48864;50.820;4.400;2022-10-16T09:35:31;15.90;99.90
23697;DHT22;48864;50.820;4.400;2022-10-16T09:37:57;16.00;99.90
23697;DHT22;48864;50.820;4.400;2022-10-16T09:40:31;16.10;99.90
23697;DHT22;48864;50.820;4.400;2022-10-16T09:45:38;16.20;99.90
23697;DHT22;48864;50.820;4.400;2022-10-16T09:48:17;16.30;99.90
23697;DHT22;48864;50.820;4.400;2022-10-16T09:50:56;16.50;99.90
23697;DHT22;48864;50.820;4.400;2022-10-16T09:53:22;16.50;99.90
23697;DHT22;48864;50.820;4.400;2022-10-16T09:55:52;16.50;99.90
23697;DHT22;48864;50.820;4.400;2022-10-16T09:58:22;16.60;99.90
23697;DHT22;48864;50.820;4.400;2022-10-16T10:00:53;16.60;99.90
23697;DHT22;48864;50.820;4.400;2022-10-16T10:03:38;16.60;99.90
23697;DHT22;48864;50.820;4.400;2022-10-16T10:06:23;16.80;99.90
23697;DHT22;48864;50.820;4.400;2022-10-16T10:09:26;17.00;99.90
23697;DHT22;48864;50.820;4.400;2022-10-16T10:17:06;16.80;99.90
23697;DHT22;48864;50.820;4.400;2022-10-16T10:22:44;16.90;99.90
23697;DHT22;48864;50.820;4.400;2022-10-16T10:27:39;16.80;99.90
23697;DHT22;48864;50.820;4.400;2022-10-16T10:30:27;16.80;99.90
23697;DHT22;48864;50.820;4.400;2022-10-16T10:32:58;16.90;99.90
23697;DHT22;48864;50.820;4.400;2022-10-16T10:35:59;17.10;99.90
23697;DHT22;48864;50.820;4.400;2022-10-16T10:38:53;17.10;99.90
23697;DHT22;48864;50.820;4.400;2022-10-16T10:44:08;17.10;99.90
23697;DHT22;48864;50.820;4.400;2022-10-16T11:06:40;17.90;99.90
23697;DHT22;48864;50.820;4.400;2022-10-16T11:09:24;18.00;99.90
23697;DHT22;48864;50.820;4.400;2022-10-16T11:12:01;18.00;99.90
23697;DHT22;48864;50.820;4.400;2022-10-16T11:17:44;17.90;99.90
23697;DHT22;48864;50.820;4.400;2022-10-16T11:20:29;17.90;99.90
23697;DHT22;48864;50.820;4.400;2022-10-16T11:25:43;18.00;99.90
23697;DHT22;48864;50.820;4.400;2022-10-16T11:28:45;18.00;99.90
23697;DHT22;48864;50.820;4.400;2022-10-16T11:36:45;18.30;99.90
23697;DHT22;48864;50.820;4.400;2022-10-16T11:39:28;18.50;99.90
23697;DHT22;48864;50.820;4.400;2022-10-16T11:42:08;18.70;99.90
23697;DHT22;48864;50.820;4.400;2022-10-16T11:45:00;18.90;99.90
23697;DHT22;48864;50.820;4.400;2022-10-16T11:47:44;18.80;99.90
23697;DHT22;48864;50.820;4.400;2022-10-16T11:50:33;18.60;99.90
23697;DHT22;48864;50.820;4.400;2022-10-16T11:53:23;18.50;99.90
23697;DHT22;48864;50.820;4.400;2022-10-16T11:55:51;18.60;99.90
23697;DHT22;48864;50.820;4.400;2022-10-16T11:58:36;18.70;99.90
23697;DHT22;48864;50.820;4.400;2022-10-16T12:01:28;18.80;99.90
23697;DHT22;48864;50.820;4.400;2022-10-16T12:06:59;18.80;99.90
23697;DHT22;48864;50.820;4.400;2022-10-16T12:09:36;18.80;99.90
23697;DHT22;48864;50.820;4.400;2022-10-16T12:12:02;18.90;99.90
23697;DHT22;48864;50.820;4.400;2022-10-16T12:14:38;19.00;99.90
23697;DHT22;48864;50.820;4.400;2022-10-16T12:17:25;19.10;99.90
23697;DHT22;48864;50.820;4.400;2022-10-16T12:20:28;19.00;99.90
23697;DHT22;48864;50.820;4.400;2022-10-16T12:23:05;18.90;99.90
23697;DHT22;48864;50.820;4.400;2022-10-16T12:25:39;18.90;99.90
23697;DHT22;48864;50.820;4.400;2022-10-16T12:28:31;19.00;99.90
23697;DHT22;48864;50.820;4.400;2022-10-16T12:31:06;19.00;99.90
23697;DHT22;48864;50.820;4.400;2022-10-16T12:33:36;19.00;99.90
23697;DHT22;48864;50.820;4.400;2022-10-16T12:36:37;19.00;99.90
23697;DHT22;48864;50.820;4.400;2022-10-16T12:39:27;19.20;99.90
23697;DHT22;48864;50.820;4.400;2022-10-16T12:42:23;19.20;99.90
23697;DHT22;48864;50.820;4.400;2022-10-16T12:44:55;19.10;99.90
23697;DHT22;48864;50.820;4.400;2022-10-16T12:47:34;18.80;99.90
23697;DHT22;48864;50.820;4.400;2022-10-16T12:50:25;18.70;99.90
23697;DHT22;48864;50.820;4.400;2022-10-16T12:52:57;18.80;99.90
23697;DHT22;48864;50.820;4.400;2022-10-16T12:55:24;18.80;99.90
23697;DHT22;48864;50.820;4.400;2022-10-16T12:58:25;18.90;99.90
23697;DHT22;48864;50.820;4.400;2022-10-16T13:00:57;18.80;99.90
23697;DHT22;48864;50.820;4.400;2022-10-16T13:03:52;18.70;99.90
23697;DHT22;48864;50.820;4.400;2022-10-16T13:06:43;18.80;99.90
23697;DHT22;48864;50.820;4.400;2022-10-16T13:12:22;19.00;99.90
23697;DHT22;48864;50.820;4.400;2022-10-16T13:15:28;18.90;99.90
23697;DHT22;48864;50.820;4.400;2022-10-16T13:18:19;18.90;99.90
23697;DHT22;48864;50.820;4.400;2022-10-16T13:21:03;19.30;99.90
23697;DHT22;48864;50.820;4.400;2022-10-16T13:26:15;19.60;99.90
23697;DHT22;48864;50.820;4.400;2022-10-16T13:28:43;19.50;99.90
23697;DHT22;48864;50.820;4.400;2022-10-16T13:31:28;19.60;99.90
23697;DHT22;48864;50.820;4.400;2022-10-16T13:33:57;19.70;99.90
23697;DHT22;48864;50.820;4.400;2022-10-16T13:36:30;19.60;99.90
23697;DHT22;48864;50.820;4.400;2022-10-16T13:39:28;19.70;99.90
23697;DHT22;48864;50.820;4.400;2022-10-16T13:42:04;19.80;99.90
23697;DHT22;48864;50.820;4.400;2022-10-16T13:44:41;19.90;99.90
23697;DHT22;48864;50.820;4.400;2022-10-16T13:47:20;20.00;99.90
23697;DHT22;48864;50.820;4.400;2022-10-16T13:49:46;19.90;99.90
23697;DHT22;48864;50.820;4.400;2022-10-16T13:52:20;19.90;99.90
23697;DHT22;48864;50.820;4.400;2022-10-16T13:54:46;20.00;99.90
23697;DHT22;48864;50.820;4.400;2022-10-16T13:57:16;19.70;99.90
23697;DHT22;48864;50.820;4.400;2022-10-16T13:59:42;19.80;99.90
23697;DHT22;48864;50.820;4.400;2022-10-16T14:02:31;19.80;99.90
23697;DHT22;48864;50.820;4.400;2022-10-16T14:05:01;19.60;99.90
23697;DHT22;48864;50.820;4.400;2022-10-16T14:07:29;19.80;99.90
23697;DHT22;48864;50.820;4.400;2022-10-16T14:10:22;19.60;99.90
23697;DHT22;48864;50.820;4.400;2022-10-16T14:12:46;19.50;99.90
23697;DHT22;48864;50.820;4.400;2022-10-16T14:15:19;19.60;99.90
23697;DHT22;48864;50.820;4.400;2022-10-16T14:18:03;19.70;99.90
23697;DHT22;48864;50.820;4.400;2022-10-16T14:20:33;19.90;99.90
23697;DHT22;48864;50.820;4.400;2022-10-16T14:23:29;19.70;99.90
23697;DHT22;48864;50.820;4.400;2022-10-16T14:28:35;19.60;99.90
23697;DHT22;48864;50.820;4.400;2022-10-16T14:31:02;19.60;99.90
23697;DHT22;48864;50.820;4.400;2022-10-16T14:38:26;19.60;99.90
23697;DHT22;48864;50.820;4.400;2022-10-16T14:40:51;19.70;99.90
23697;DHT22;48864;50.820;4.400;2022-10-16T14:43:22;19.50;99.90
23697;DHT22;48864;50.820;4.400;2022-10-16T14:45:53;19.60;99.90
23697;DHT22;48864;50.820;4.400;2022-10-16T14:48:28;19.60;99.90
23697;DHT22;48864;50.820;4.400;2022-10-16T14:50:59;19.70;99.90
23697;DHT22;48864;50.820;4.400;2022-10-16T14:53:34;19.60;99.90
23697;DHT22;48864;50.820;4.400;2022-10-16T14:56:08;19.50;99.90
23697;DHT22;48864;50.820;4.400;2022-10-16T14:58:39;19.60;99.90
23697;DHT22;48864;50.820;4.400;2022-10-16T15:01:09;19.70;99.90
23697;DHT22;48864;50.820;4.400;2022-10-16T15:03:45;19.70;99.90
23697;DHT22;48864;50.820;4.400;2022-10-16T15:06:18;19.70;99.90
23697;DHT22;48864;50.820;4.400;2022-10-16T15:08:44;19.80;99.90
23697;DHT22;48864;50.820;4.400;2022-10-16T15:11:16;19.60;99.90
23697;DHT22;48864;50.820;4.400;2022-10-16T15:13:43;19.70;99.90
23697;DHT22;48864;50.820;4.400;2022-10-16T15:16:12;19.50;99.90
23697;DHT22;48864;50.820;4.400;2022-10-16T15:18:38;19.50;99.90
23697;DHT22;48864;50.820;4.400;2022-10-16T15:21:04;19.70;99.90
23697;DHT22;48864;50.820;4.400;2022-10-16T15:23:32;19.50;99.90
23697;DHT22;48864;50.820;4.400;2022-10-16T15:25:58;19.50;99.90
23697;DHT22;48864;50.820;4.400;2022-10-16T15:28:30;19.60;99.90
23697;DHT22;48864;50.820;4.400;2022-10-16T15:30:57;19.60;99.90
23697;DHT22;48864;50.820;4.400;2022-10-16T15:33:25;19.60;99.90
23697;DHT22;48864;50.820;4.400;2022-10-16T15:35:53;19.50;99.90
23697;DHT22;48864;50.820;4.400;2022-10-16T15:38:20;19.50;99.90
23697;DHT22;48864;50.820;4.400;2022-10-16T15:40:47;19.60;99.90
23697;DHT22;48864;50.820;4.400;2022-10-16T15:43:13;19.50;99.90
23697;DHT22;48864;50.820;4.400;2022-10-16T15:45:39;19.50;99.90
23697;DHT22;48864;50.820;4.400;2022-10-16T15:48:05;19.40;99.90
23697;DHT22;48864;50.820;4.400;2022-10-16T15:50:31;19.40;99.90
23697;DHT22;48864;50.820;4.400;2022-10-16T15:53:27;19.50;99.90
23697;DHT22;48864;50.820;4.400;2022-10-16T15:55:53;19.50;99.90
23697;DHT22;48864;50.820;4.400;2022-10-16T15:58:18;19.50;99.90
23697;DHT22;48864;50.820;4.400;2022-10-16T16:00:44;19.60;99.90
23697;DHT22;48864;50.820;4.400;2022-10-16T16:03:09;19.60;99.90
23697;DHT22;48864;50.820;4.400;2022-10-16T16:05:38;19.70;99.90
23697;DHT22;48864;50.820;4.400;2022-10-16T16:08:04;19.50;99.90
23697;DHT22;48864;50.820;4.400;2022-10-16T16:10:30;19.50;99.90
23697;DHT22;48864;50.820;4.400;2022-10-16T16:12:55;19.40;99.90
23697;DHT22;48864;50.820;4.400;2022-10-16T16:15:22;19.40;99.90
23697;DHT22;48864;50.820;4.400;2022-10-16T16:17:48;19.30;99.90
23697;DHT22;48864;50.820;4.400;2022-10-16T16:20:14;19.20;99.90
23697;DHT22;48864;50.820;4.400;2022-10-16T16:22:40;19.30;99.90
23697;DHT22;48864;50.820;4.400;2022-10-16T16:25:05;19.30;99.90
23697;DHT22;48864;50.820;4.400;2022-10-16T16:27:31;19.30;99.90
23697;DHT22;48864;50.820;4.400;2022-10-16T16:29:59;19.40;99.90
23697;DHT22;48864;50.820;4.400;2022-10-16T16:32:30;19.30;99.90
23697;DHT22;48864;50.820;4.400;2022-10-16T16:34:58;19.30;99.90
23697;DHT22;48864;50.820;4.400;2022-10-16T16:37:23;19.20;99.90
23697;DHT22;48864;50.820;4.400;2022-10-16T16:39:49;19.20;99.90
23697;DHT22;48864;50.820;4.400;2022-10-16T16:42:15;19.20;99.90
23697;DHT22;48864;50.820;4.400;2022-10-16T16:44:41;19.20;99.90
23697;DHT22;48864;50.820;4.400;2022-10-16T16:47:07;19.20;99.90
23697;DHT22;48864;50.820;4.400;2022-10-16T16:49:32;19.30;99.90
23697;DHT22;48864;50.820;4.400;2022-10-16T16:51:58;19.30;99.90
23697;DHT22;48864;50.820;4.400;2022-10-16T16:54:24;19.30;99.90
23697;DHT22;48864;50.820;4.400;2022-10-16T16:57:04;19.40;99.90
23697;DHT22;48864;50.820;4.400;2022-10-16T16:59:29;19.30;99.90
23697;DHT22;48864;50.820;4.400;2022-10-16T17:01:58;19.20;99.90
23697;DHT22;48864;50.820;4.400;2022-10-16T17:04:25;18.90;99.90
23697;DHT22;48864;50.820;4.400;2022-10-16T17:06:53;18.80;99.90
23697;DHT22;48864;50.820;4.400;2022-10-16T17:09:32;18.90;99.90
23697;DHT22;48864;50.820;4.400;2022-10-16T17:11:57;18.70;99.90
23697;DHT22;48864;50.820;4.400;2022-10-16T17:14:23;18.60;99.90
23697;DHT22;48864;50.820;4.400;2022-10-16T17:16:48;18.50;99.90
23697;DHT22;48864;50.820;4.400;2022-10-16T17:19:16;18.50;99.90
23697;DHT22;48864;50.820;4.400;2022-10-16T17:21:43;18.50;99.90
23697;DHT22;48864;50.820;4.400;2022-10-16T17:24:08;18.30;99.90
23697;DHT22;48864;50.820;4.400;2022-10-16T17:26:34;18.50;99.90
23697;DHT22;48864;50.820;4.400;2022-10-16T17:29:05;18.60;99.90
23697;DHT22;48864;50.820;4.400;2022-10-16T17:31:45;18.60;99.90
23697;DHT22;48864;50.820;4.400;2022-10-16T17:34:14;18.60;99.90